createdAt,value
2019-03-15T00:01:42.326Z,5.90
2019-03-15T00:04:11.120Z,4.57
2019-03-15T00:06:39.905Z,4.90
2019-03-15T00:09:08.985Z,5.03
2019-03-15T00:11:37.504Z,5.80
2019-03-15T00:14:06.493Z,4.92
2019-03-15T00:16:35.099Z,4.87
2019-03-15T00:19:03.772Z,4.72
2019-03-15T00:21:32.295Z,4.85
2019-03-15T00:24:00.886Z,5.78
2019-03-15T00:26:29.418Z,4.67
2019-03-15T00:28:57.858Z,5.15
2019-03-15T00:31:26.303Z,5.10
2019-03-15T00:33:54.745Z,5.20
2019-03-15T00:36:23.470Z,4.85
2019-03-15T00:38:51.976Z,5.33
2019-03-15T00:41:20.488Z,5.80
2019-03-15T00:43:49.605Z,5.47
2019-03-15T00:46:18.391Z,5.20
2019-03-15T00:48:46.877Z,5.90
2019-03-15T00:51:15.323Z,5.28
2019-03-15T00:53:43.771Z,5.85
2019-03-15T00:56:12.315Z,5.42
2019-03-15T00:58:40.759Z,6.53
2019-03-15T01:01:09.610Z,4.92
2019-03-15T01:03:38.106Z,4.95
2019-03-15T01:06:06.615Z,5.42
2019-03-15T01:08:35.127Z,5.42
2019-03-15T01:11:04.032Z,5.00
2019-03-15T01:13:32.476Z,5.20
2019-03-15T01:16:00.944Z,6.28
2019-03-15T01:18:29.390Z,5.30
2019-03-15T01:20:57.926Z,6.33
2019-03-15T01:23:26.366Z,5.30
2019-03-15T01:25:54.929Z,5.65
2019-03-15T01:28:23.473Z,5.90
2019-03-15T01:30:52.004Z,5.78
2019-03-15T01:33:20.457Z,5.08
2019-03-15T01:35:48.930Z,5.45
2019-03-15T01:38:17.443Z,6.55
2019-03-15T01:40:48.682Z,5.70
2019-03-15T01:43:16.160Z,5.40
2019-03-15T01:45:44.703Z,5.00
2019-03-15T01:48:13.150Z,4.92
2019-03-15T01:50:41.616Z,4.80
2019-03-15T01:53:10.179Z,5.42
2019-03-15T01:55:38.617Z,6.28
2019-03-15T01:58:07.221Z,5.22
2019-03-15T02:00:35.805Z,5.67
2019-03-15T02:03:04.381Z,5.30
2019-03-15T02:05:32.846Z,5.62
2019-03-15T02:08:01.464Z,5.85
2019-03-15T02:10:29.922Z,5.17
2019-03-15T02:12:58.369Z,5.83
2019-03-15T02:15:26.923Z,5.58
2019-03-15T02:17:55.459Z,5.95
2019-03-15T02:20:23.904Z,5.20
2019-03-15T02:22:52.349Z,5.30
2019-03-15T02:25:20.797Z,5.40
2019-03-15T02:27:49.443Z,5.20
2019-03-15T02:30:17.917Z,5.55
2019-03-15T02:32:46.363Z,5.30
2019-03-15T02:35:15.056Z,6.30
2019-03-15T02:37:43.757Z,4.97
2019-03-15T02:40:12.837Z,4.80
2019-03-15T02:42:41.563Z,5.97
2019-03-15T02:45:10.305Z,5.15
2019-03-15T02:47:38.741Z,5.62
2019-03-15T02:50:08.354Z,6.33
2019-03-15T02:52:36.945Z,6.45
2019-03-15T02:55:06.646Z,5.62
2019-03-15T02:57:35.714Z,5.70
2019-03-15T03:00:06.515Z,5.90
2019-03-15T03:02:34.935Z,5.60
2019-03-15T03:05:04.557Z,5.20
2019-03-15T03:07:33.006Z,5.80
2019-03-15T03:10:02.271Z,5.75
2019-03-15T03:12:31.075Z,5.90
2019-03-15T03:14:59.550Z,6.00
2019-03-15T03:17:27.984Z,5.62
2019-03-15T03:19:56.459Z,5.90
2019-03-15T03:22:24.901Z,5.53
2019-03-15T03:24:53.418Z,5.58
2019-03-15T03:27:21.859Z,5.70
2019-03-15T03:29:50.344Z,6.08
2019-03-15T03:32:18.835Z,6.28
2019-03-15T03:34:47.296Z,6.20
2019-03-15T03:37:15.803Z,5.90
2019-03-15T03:39:44.271Z,5.92
2019-03-15T03:42:12.869Z,6.33
2019-03-15T03:44:41.310Z,5.40
2019-03-15T03:47:09.755Z,5.97
2019-03-15T03:49:38.232Z,6.15
2019-03-15T03:52:06.809Z,5.35
2019-03-15T03:54:35.429Z,4.93
2019-03-15T03:57:04.818Z,5.20
2019-03-15T03:59:33.531Z,5.22
2019-03-15T04:02:02.122Z,5.12
2019-03-15T04:04:30.567Z,5.20
2019-03-15T04:06:59.009Z,6.15
2019-03-15T04:09:27.547Z,5.05
2019-03-15T04:11:56.446Z,5.83
2019-03-15T04:14:24.971Z,5.67
2019-03-15T04:16:53.521Z,4.73
2019-03-15T04:19:21.971Z,5.80
2019-03-15T04:21:50.489Z,5.53
2019-03-15T04:24:19.562Z,5.95
2019-03-15T04:26:48.022Z,5.70
2019-03-15T04:29:16.567Z,6.62
2019-03-15T04:31:45.021Z,5.65
2019-03-15T04:34:13.499Z,5.20
2019-03-15T04:36:42.277Z,5.10
2019-03-15T04:39:13.801Z,6.40
2019-03-15T04:41:40.997Z,5.00
2019-03-15T04:44:09.444Z,5.12
2019-03-15T04:46:37.993Z,6.70
2019-03-15T04:49:06.477Z,6.37
2019-03-15T04:51:35.007Z,6.22
2019-03-15T04:54:05.684Z,5.70
2019-03-15T04:56:33.789Z,6.22
2019-03-15T04:59:02.322Z,7.30
2019-03-15T05:01:30.852Z,6.83
2019-03-15T05:03:59.371Z,8.03
2019-03-15T05:06:27.886Z,6.92
2019-03-15T05:08:56.333Z,6.53
2019-03-15T05:11:24.806Z,7.22
2019-03-15T05:13:53.264Z,7.35
2019-03-15T05:16:21.698Z,7.62
2019-03-15T05:18:50.239Z,6.67
2019-03-15T05:21:18.680Z,7.72
2019-03-15T05:23:47.158Z,7.00
2019-03-15T05:26:15.615Z,7.87
2019-03-15T05:28:44.130Z,6.80
2019-03-15T05:31:12.574Z,7.35
2019-03-15T05:33:41.100Z,7.08
2019-03-15T05:36:09.553Z,7.12
2019-03-15T05:38:38.000Z,7.63
2019-03-15T05:41:06.437Z,6.92
2019-03-15T05:43:34.887Z,7.80
2019-03-15T05:46:03.521Z,8.13
2019-03-15T05:48:31.983Z,7.53
2019-03-15T05:51:00.430Z,7.47
2019-03-15T05:53:28.870Z,7.78
2019-03-15T05:55:57.314Z,8.88
2019-03-15T05:58:25.843Z,7.40
2019-03-15T06:00:54.364Z,7.92
2019-03-15T06:03:22.810Z,7.53
2019-03-15T06:05:51.263Z,8.00
2019-03-15T06:08:19.712Z,7.35
2019-03-15T06:10:48.154Z,7.40
2019-03-15T06:13:16.698Z,7.70
2019-03-15T06:15:45.145Z,7.08
2019-03-15T06:18:13.603Z,7.75
2019-03-15T06:20:42.081Z,7.53
2019-03-15T06:23:10.525Z,8.23
2019-03-15T06:25:39.120Z,7.25
2019-03-15T06:28:07.583Z,6.85
2019-03-15T06:30:36.011Z,6.95
2019-03-15T06:33:04.542Z,6.40
2019-03-15T06:35:32.973Z,7.42
2019-03-15T06:38:01.488Z,7.30
2019-03-15T06:40:30.201Z,8.60
2019-03-15T06:42:58.661Z,7.30
2019-03-15T06:45:27.259Z,7.33
2019-03-15T06:47:55.891Z,6.92
2019-03-15T06:50:24.410Z,7.20
2019-03-15T06:52:52.997Z,7.40
2019-03-15T06:55:21.436Z,7.72
2019-03-15T06:57:49.880Z,8.33
2019-03-15T07:00:18.324Z,7.87
2019-03-15T07:02:46.965Z,7.93
2019-03-15T07:05:15.551Z,7.47
2019-03-15T07:07:44.131Z,7.50
2019-03-15T07:10:13.010Z,7.67
2019-03-15T07:12:41.547Z,7.17
2019-03-15T07:15:11.666Z,7.08
2019-03-15T07:17:40.159Z,7.62
2019-03-15T07:20:18.973Z,8.25
2019-03-15T07:22:47.478Z,7.85
2019-03-15T07:25:16.063Z,8.10
2019-03-15T07:27:44.813Z,7.72
2019-03-15T07:30:15.259Z,7.50
2019-03-15T07:32:43.883Z,7.80
2019-03-15T07:35:12.386Z,7.62
2019-03-15T07:37:40.930Z,9.38
2019-03-15T07:40:11.695Z,7.65
2019-03-15T07:42:40.165Z,9.00
2019-03-15T07:45:10.451Z,7.83
2019-03-15T07:47:38.908Z,8.13
2019-03-15T07:50:14.410Z,8.00
2019-03-15T07:52:43.246Z,7.83
2019-03-15T07:55:12.132Z,8.60
2019-03-15T07:57:40.581Z,8.20
2019-03-15T08:00:16.654Z,8.60
2019-03-15T08:02:45.246Z,8.40
2019-03-15T08:05:13.959Z,8.70
2019-03-15T08:07:45.552Z,8.08
2019-03-15T08:10:13.326Z,8.33
2019-03-15T08:12:42.034Z,9.10
2019-03-15T08:15:11.934Z,8.13
2019-03-15T08:17:40.660Z,8.90
2019-03-15T08:20:14.131Z,9.28
2019-03-15T08:22:42.645Z,8.50
2019-03-15T08:25:12.130Z,7.42
2019-03-15T08:27:40.572Z,7.92
2019-03-15T08:30:12.093Z,9.15
2019-03-15T08:32:43.325Z,7.75
2019-03-15T08:35:11.878Z,7.67
2019-03-15T08:37:40.565Z,6.70
2019-03-15T08:40:15.951Z,6.80
2019-03-15T08:42:44.532Z,6.87
2019-03-15T08:45:17.983Z,7.12
2019-03-15T08:47:46.562Z,7.20
2019-03-15T08:50:17.124Z,6.35
2019-03-15T08:52:45.661Z,5.97
2019-03-15T08:55:14.547Z,6.75
2019-03-15T08:57:42.993Z,6.10
2019-03-15T09:00:18.495Z,6.40
2019-03-15T09:02:47.003Z,6.45
2019-03-15T09:05:18.933Z,7.87
2019-03-15T09:07:47.417Z,6.87
2019-03-15T09:10:23.337Z,6.97
2019-03-15T09:12:48.326Z,7.30
2019-03-15T09:15:16.938Z,7.20
2019-03-15T09:17:45.524Z,7.30
2019-03-15T09:20:15.371Z,6.87
2019-03-15T09:22:43.842Z,8.33
2019-03-15T09:25:19.808Z,7.28
2019-03-15T09:27:45.589Z,8.07
2019-03-15T09:30:23.017Z,7.50
2019-03-15T09:32:45.581Z,7.45
2019-03-15T09:35:14.198Z,8.08
2019-03-15T09:37:42.727Z,8.80
2019-03-15T09:40:15.870Z,9.18
2019-03-15T09:42:44.342Z,9.20
2019-03-15T09:45:17.982Z,8.30
2019-03-15T09:47:46.746Z,9.80
2019-03-15T09:50:26.457Z,10.17
2019-03-15T09:52:46.281Z,9.60
2019-03-15T09:55:15.029Z,9.68
2019-03-15T09:57:43.515Z,10.68
2019-03-15T10:00:16.774Z,11.05
2019-03-15T10:02:45.280Z,11.70
2019-03-15T10:05:14.016Z,11.30
2019-03-15T10:07:43.809Z,11.57
2019-03-15T10:10:18.274Z,13.15
2019-03-15T10:12:46.079Z,13.88
2019-03-15T10:15:15.358Z,14.38
2019-03-15T10:17:43.808Z,14.00
2019-03-15T10:20:13.189Z,13.72
2019-03-15T10:22:41.740Z,13.80
2019-03-15T10:25:17.694Z,14.65
2019-03-15T10:27:46.232Z,13.68
2019-03-15T10:30:19.514Z,12.60
2019-03-15T10:32:48.004Z,13.05
2019-03-15T10:35:16.614Z,10.23
2019-03-15T10:37:45.105Z,11.33
2019-03-15T10:40:24.243Z,10.53
2019-03-15T10:42:55.553Z,9.20
2019-03-15T10:45:23.224Z,8.00
2019-03-15T10:47:51.681Z,8.18
2019-03-15T10:50:20.435Z,7.55
2019-03-15T10:52:48.876Z,6.53
2019-03-15T10:55:20.575Z,6.58
2019-03-15T10:57:47.576Z,6.80
2019-03-15T11:00:22.377Z,6.80
2019-03-15T11:02:50.924Z,6.83
2019-03-15T11:05:19.424Z,7.28
2019-03-15T11:07:47.963Z,7.58
2019-03-15T11:10:16.498Z,7.00
2019-03-15T11:12:45.014Z,7.58
2019-03-15T11:15:16.983Z,7.67
2019-03-15T11:17:45.417Z,7.30
2019-03-15T11:20:14.349Z,7.53
2019-03-15T11:22:42.863Z,7.47
2019-03-15T11:25:12.076Z,6.92
2019-03-15T11:27:40.629Z,7.17
2019-03-15T11:30:11.606Z,7.53
2019-03-15T11:32:40.181Z,6.60
2019-03-15T11:35:09.790Z,6.97
2019-03-15T11:37:38.315Z,6.50
2019-03-15T11:40:18.890Z,6.60
2019-03-15T11:42:46.404Z,7.03
2019-03-15T11:45:15.220Z,6.35
2019-03-15T11:48:01.820Z,7.10
2019-03-15T11:50:18.024Z,6.45
2019-03-15T11:52:46.592Z,6.33
2019-03-15T11:55:15.142Z,5.30
2019-03-15T11:57:43.641Z,5.50
2019-03-15T12:00:16.323Z,5.80
2019-03-15T12:02:44.896Z,5.70
2019-03-15T12:05:14.175Z,5.75
2019-03-15T12:07:42.688Z,5.40
2019-03-15T12:10:12.787Z,5.33
2019-03-15T12:12:41.225Z,5.40
2019-03-15T12:15:11.898Z,5.20
2019-03-15T12:17:40.364Z,4.92
2019-03-15T12:20:12.436Z,5.85
2019-03-15T12:22:40.894Z,6.35
2019-03-15T12:25:10.387Z,6.47
2019-03-15T12:27:38.836Z,5.43
2019-03-15T12:30:15.252Z,6.25
2019-03-15T12:32:43.789Z,5.93
2019-03-15T12:35:13.210Z,5.00
2019-03-15T12:37:41.685Z,6.22
2019-03-15T12:40:17.792Z,6.55
2019-03-15T12:42:46.301Z,5.23
2019-03-15T12:45:15.486Z,5.22
2019-03-15T12:47:44.145Z,5.45
2019-03-15T12:50:16.236Z,4.53
2019-03-15T12:52:48.698Z,4.67
2019-03-15T12:55:15.456Z,5.05
2019-03-15T12:57:44.131Z,5.42
2019-03-15T13:00:14.841Z,4.60
2019-03-15T13:02:43.371Z,5.00
2019-03-15T13:05:11.929Z,4.78
2019-03-15T13:07:40.445Z,4.80
2019-03-15T13:10:11.713Z,5.08
2019-03-15T13:12:40.151Z,5.00
2019-03-15T13:15:11.300Z,5.50
2019-03-15T13:17:39.820Z,4.62
2019-03-15T13:20:10.868Z,3.98
2019-03-15T13:22:39.344Z,4.72
2019-03-15T13:25:09.856Z,6.83
2019-03-15T13:27:38.306Z,8.95
2019-03-15T13:30:09.681Z,7.80
2019-03-15T13:32:38.375Z,8.68
2019-03-15T13:35:07.940Z,8.23
2019-03-15T13:37:36.397Z,8.20
2019-03-15T13:40:07.900Z,8.20
2019-03-15T13:42:36.407Z,9.10
2019-03-15T13:45:07.444Z,8.98
2019-03-15T13:47:35.915Z,8.63
2019-03-15T13:50:06.635Z,9.50
2019-03-15T13:52:35.082Z,8.65
2019-03-15T13:55:03.895Z,7.95
2019-03-15T13:57:32.370Z,8.30
2019-03-15T14:00:00.796Z,7.55
2019-03-15T14:02:29.251Z,7.65
2019-03-15T14:04:57.692Z,8.58
2019-03-15T14:07:26.152Z,9.15
2019-03-15T14:09:54.587Z,8.80
2019-03-15T14:12:23.152Z,10.35
2019-03-15T14:14:51.678Z,10.43
2019-03-15T14:17:20.121Z,10.72
2019-03-15T14:19:48.559Z,10.90
2019-03-15T14:22:17.084Z,11.10
2019-03-15T14:24:45.578Z,11.07
2019-03-15T14:27:14.129Z,10.58
2019-03-15T14:29:42.569Z,12.43
2019-03-15T14:32:11.031Z,12.50
2019-03-15T14:34:39.540Z,10.43
2019-03-15T14:37:10.311Z,10.10
2019-03-15T14:39:38.246Z,9.90
2019-03-15T14:42:06.892Z,10.53
2019-03-15T14:44:35.379Z,10.45
2019-03-15T14:47:03.953Z,10.93
2019-03-15T14:49:32.398Z,10.70
2019-03-15T14:52:00.829Z,9.38
2019-03-15T14:54:29.263Z,9.88
2019-03-15T14:56:57.858Z,9.80
2019-03-15T14:59:26.334Z,9.53
2019-03-15T15:01:54.998Z,9.90
2019-03-15T15:04:23.617Z,9.90
2019-03-15T15:06:52.048Z,10.13
2019-03-15T15:09:20.556Z,10.38
2019-03-15T15:11:49.017Z,9.80
2019-03-15T15:14:17.557Z,9.33
2019-03-15T15:16:45.993Z,8.77
2019-03-15T15:19:14.435Z,9.35
2019-03-15T15:21:42.905Z,8.85
2019-03-15T15:24:11.385Z,9.73
2019-03-15T15:26:39.826Z,11.23
2019-03-15T15:29:08.265Z,9.10
2019-03-15T15:31:36.822Z,9.00
2019-03-15T15:34:05.388Z,12.85
2019-03-15T15:36:33.830Z,11.55
2019-03-15T15:39:02.316Z,11.60
2019-03-15T15:41:30.755Z,12.82
2019-03-15T15:43:59.267Z,11.22
2019-03-15T15:46:27.765Z,12.78
2019-03-15T15:48:56.268Z,10.90
2019-03-15T15:51:24.717Z,11.78
2019-03-15T15:53:53.184Z,10.55
2019-03-15T15:56:21.612Z,11.53
2019-03-15T15:58:50.204Z,10.97
2019-03-15T16:01:18.639Z,11.65
2019-03-15T16:03:47.149Z,11.22
2019-03-15T16:06:16.478Z,11.80
2019-03-15T16:08:44.919Z,10.57
2019-03-15T16:11:13.429Z,9.20
2019-03-15T16:13:41.875Z,9.55
2019-03-15T16:16:10.339Z,7.58
2019-03-15T16:18:38.848Z,6.33
2019-03-15T16:21:07.391Z,5.50
2019-03-15T16:23:36.044Z,5.90
2019-03-15T16:26:04.561Z,4.62
2019-03-15T16:28:36.014Z,4.40
2019-03-15T16:31:03.221Z,4.30
2019-03-15T16:33:31.657Z,4.00
2019-03-15T16:36:00.094Z,3.60
2019-03-15T16:38:28.514Z,3.60
2019-03-15T16:40:56.942Z,4.55
2019-03-15T16:43:25.379Z,4.75
2019-03-15T16:45:53.840Z,5.08
2019-03-15T16:48:22.267Z,4.92
2019-03-15T16:50:51.987Z,4.50
2019-03-15T16:53:20.533Z,3.75
2019-03-15T16:55:49.076Z,4.40
2019-03-15T16:58:17.575Z,4.50
2019-03-15T17:00:46.076Z,4.37
2019-03-15T17:03:14.512Z,4.75
2019-03-15T17:05:42.956Z,4.40
2019-03-15T17:08:11.393Z,4.85
2019-03-15T17:10:39.820Z,4.40
2019-03-15T17:13:08.424Z,4.40
2019-03-15T17:15:37.030Z,4.80
2019-03-15T17:18:05.461Z,6.05
2019-03-15T17:20:33.894Z,5.35
2019-03-15T17:23:02.414Z,4.42
2019-03-15T17:25:30.845Z,4.60
2019-03-15T17:27:59.318Z,5.25
2019-03-15T17:30:28.149Z,5.30
2019-03-15T17:32:56.576Z,4.70
2019-03-15T17:35:25.010Z,5.30
2019-03-15T17:37:53.551Z,5.55
2019-03-15T17:40:22.332Z,4.90
2019-03-15T17:42:50.832Z,5.47
2019-03-15T17:45:19.339Z,5.05
2019-03-15T17:47:48.103Z,5.73
2019-03-15T17:50:17.774Z,5.28
2019-03-15T17:52:46.328Z,5.37
2019-03-15T17:55:16.475Z,5.20
2019-03-15T17:57:45.824Z,5.15
2019-03-15T18:00:24.895Z,6.47
2019-03-15T18:02:53.341Z,6.20
2019-03-15T18:05:22.137Z,6.03
2019-03-15T18:07:50.700Z,5.65
2019-03-15T18:10:19.137Z,4.87
2019-03-15T18:12:47.641Z,5.35
2019-03-15T18:15:16.185Z,4.70
2019-03-15T18:17:44.701Z,5.67
2019-03-15T18:20:13.305Z,4.78
2019-03-15T18:22:41.763Z,5.43
2019-03-15T18:25:11.033Z,4.87
2019-03-15T18:27:39.661Z,5.25
2019-03-15T18:30:15.899Z,5.25
2019-03-15T18:32:44.493Z,6.42
2019-03-15T18:35:13.663Z,6.95
2019-03-15T18:37:42.290Z,7.65
2019-03-15T18:40:12.811Z,8.48
2019-03-15T18:42:41.261Z,7.87
2019-03-15T18:45:12.041Z,7.28
2019-03-15T18:47:40.611Z,7.62
2019-03-15T18:50:15.290Z,7.50
2019-03-15T18:52:43.783Z,8.58
2019-03-15T18:55:12.411Z,7.60
2019-03-15T18:57:40.941Z,6.53
2019-03-15T19:00:14.753Z,8.45
2019-03-15T19:02:43.327Z,7.35
2019-03-15T19:05:12.024Z,7.35
2019-03-15T19:07:40.559Z,6.55
2019-03-15T19:10:15.938Z,7.87
2019-03-15T19:12:44.648Z,7.33
2019-03-15T19:15:17.988Z,6.78
2019-03-15T19:17:46.484Z,6.10
2019-03-15T19:20:16.034Z,6.17
2019-03-15T19:22:44.541Z,6.47
2019-03-15T19:25:14.145Z,6.08
2019-03-15T19:27:42.751Z,6.72
2019-03-15T19:30:15.984Z,5.60
2019-03-15T19:32:44.460Z,5.53
2019-03-15T19:35:12.987Z,5.47
2019-03-15T19:37:41.586Z,6.10
2019-03-15T19:40:17.857Z,5.40
2019-03-15T19:42:46.366Z,5.50
2019-03-15T19:45:15.737Z,5.60
2019-03-15T19:47:44.338Z,5.62
2019-03-15T19:50:17.519Z,5.70
2019-03-15T19:52:46.029Z,6.13
2019-03-15T19:55:15.235Z,5.40
2019-03-15T19:57:43.808Z,5.25
2019-03-15T20:00:14.789Z,5.37
2019-03-15T20:02:43.588Z,6.50
2019-03-15T20:05:12.449Z,5.50
2019-03-15T20:07:41.093Z,5.53
2019-03-15T20:10:15.658Z,4.70
2019-03-15T20:12:42.639Z,5.30
2019-03-15T20:15:16.337Z,5.22
2019-03-15T20:20:14.741Z,6.20
2019-03-15T20:22:43.590Z,5.50
2019-03-15T20:25:14.408Z,6.15
2019-03-15T20:27:42.976Z,5.47
2019-03-15T20:30:21.564Z,5.55
2019-03-15T20:32:47.199Z,5.55
2019-03-15T20:35:16.011Z,6.05
2019-03-15T20:37:44.669Z,6.30
2019-03-15T20:40:16.530Z,6.50
2019-03-15T20:42:45.308Z,5.43
2019-03-15T20:45:28.253Z,5.30
2019-03-15T20:47:56.854Z,5.78
2019-03-15T20:50:25.590Z,6.13
2019-03-15T20:53:07.219Z,7.03
2019-03-15T20:55:28.461Z,7.75
2019-03-15T20:57:55.387Z,6.50
2019-03-15T21:00:34.704Z,6.33
2019-03-15T21:02:55.203Z,5.58
2019-03-15T21:05:24.434Z,5.47
2019-03-15T21:07:53.154Z,6.17
2019-03-15T21:10:21.858Z,5.80
2019-03-15T21:12:50.414Z,6.33
2019-03-15T21:15:18.851Z,6.22
2019-03-15T21:17:47.370Z,5.58
2019-03-15T21:20:17.113Z,5.35
2019-03-15T21:22:45.642Z,5.27
2019-03-15T21:25:14.333Z,5.72
2019-03-15T21:27:53.097Z,5.95
2019-03-15T21:30:15.466Z,6.78
2019-03-15T21:32:44.181Z,6.23
2019-03-15T21:35:12.760Z,6.30
2019-03-15T21:37:41.357Z,5.50
2019-03-15T21:40:20.462Z,5.15
2019-03-15T21:42:48.964Z,5.20
2019-03-15T21:45:17.666Z,5.53
2019-03-15T21:47:46.191Z,4.87
2019-03-15T21:50:24.723Z,5.20
2019-03-15T21:52:53.155Z,4.80
2019-03-15T21:55:21.660Z,5.42
2019-03-15T21:57:50.167Z,4.60
2019-03-15T22:00:19.760Z,4.83
2019-03-15T22:02:48.437Z,4.70
2019-03-15T22:05:16.826Z,5.20
2019-03-15T22:07:45.284Z,4.83
2019-03-15T22:10:15.801Z,5.40
2019-03-15T22:12:44.494Z,4.63
2019-03-15T22:15:13.671Z,4.90
2019-03-15T22:17:42.675Z,4.90
2019-03-15T22:20:14.383Z,4.35
2019-03-15T22:22:42.884Z,4.75
2019-03-15T22:25:11.456Z,4.80
2019-03-15T22:27:39.891Z,5.10
2019-03-15T22:30:15.256Z,4.50
2019-03-15T22:32:43.831Z,4.50
2019-03-15T22:35:12.526Z,4.25
2019-03-15T22:37:41.061Z,4.35
2019-03-15T22:40:11.079Z,4.83
2019-03-15T22:42:39.578Z,4.60
2019-03-15T22:45:12.355Z,5.67
2019-03-15T22:47:40.860Z,4.90
2019-03-15T22:50:10.730Z,4.75
2019-03-15T22:52:39.194Z,4.20
2019-03-15T22:55:09.063Z,5.17
2019-03-15T22:57:37.715Z,5.15
2019-03-15T23:00:12.144Z,4.70
2019-03-15T23:02:41.063Z,5.77
2019-03-15T23:05:09.630Z,4.67
2019-03-15T23:07:38.148Z,4.85
2019-03-15T23:10:08.947Z,4.75
2019-03-15T23:12:37.448Z,4.83
2019-03-15T23:15:08.381Z,5.05
2019-03-15T23:17:36.812Z,4.75
2019-03-15T23:20:07.576Z,5.62
2019-03-15T23:22:36.101Z,5.33
2019-03-15T23:25:06.074Z,5.35
2019-03-15T23:27:34.506Z,4.55
2019-03-15T23:30:03.104Z,5.45
2019-03-15T23:32:32.681Z,4.86
2019-03-15T23:35:01.128Z,5.40
2019-03-15T23:37:29.580Z,6.35
2019-03-15T23:39:58.007Z,5.10
2019-03-15T23:42:26.533Z,5.70
2019-03-15T23:44:55.003Z,5.17
2019-03-15T23:47:23.433Z,4.80
2019-03-15T23:49:51.876Z,4.83
2019-03-15T23:52:20.638Z,4.80
2019-03-15T23:54:49.096Z,4.67
2019-03-15T23:57:17.623Z,4.83
2019-03-15T23:59:46.029Z,5.50
